sensor_id;sensor_type;location;lat;lon;timestamp;pressure;altitude;pressure_sealevel;temperature;humidity
80629;BME280;69983;42.370;-71.210;2023-05-29T00:00:51;101069.54;;;25.32;25.41
80629;BME280;69983;42.370;-71.210;2023-05-29T00:02:51;101075.98;;;24.90;26.12
80629;BME280;69983;42.370;-71.210;2023-05-29T00:04:51;101075.48;;;25.59;25.63
80629;BME280;69983;42.370;-71.210;2023-05-29T00:06:51;101073.62;;;25.76;25.41
80629;BME280;69983;42.370;-71.210;2023-05-29T00:08:52;101075.20;;;25.89;25.51
80629;BME280;69983;42.370;-71.210;2023-05-29T00:10:53;101077.29;;;25.80;25.19
80629;BME280;69983;42.370;-71.210;2023-05-29T00:12:52;101078.47;;;25.08;25.62
80629;BME280;69983;42.370;-71.210;2023-05-29T00:14:53;101081.23;;;24.76;25.61
80629;BME280;69983;42.370;-71.210;2023-05-29T00:16:53;101078.50;;;24.46;26.23
80629;BME280;69983;42.370;-71.210;2023-05-29T00:18:54;101080.04;;;24.36;25.67
80629;BME280;69983;42.370;-71.210;2023-05-29T00:20:54;101078.01;;;24.62;24.82
80629;BME280;69983;42.370;-71.210;2023-05-29T00:22:55;101084.16;;;24.99;24.41
80629;BME280;69983;42.370;-71.210;2023-05-29T00:24:56;101084.66;;;24.67;24.24
80629;BME280;69983;42.370;-71.210;2023-05-29T00:26:56;101086.66;;;24.72;24.00
80629;BME280;69983;42.370;-71.210;2023-05-29T00:28:56;101084.66;;;25.08;24.21
80629;BME280;69983;42.370;-71.210;2023-05-29T00:30:56;101084.50;;;25.77;24.38
80629;BME280;69983;42.370;-71.210;2023-05-29T00:32:57;101084.46;;;25.78;24.76
80629;BME280;69983;42.370;-71.210;2023-05-29T00:34:57;101090.20;;;26.06;24.63
80629;BME280;69983;42.370;-71.210;2023-05-29T00:36:58;101092.40;;;26.40;24.69
80629;BME280;69983;42.370;-71.210;2023-05-29T00:38:58;101094.32;;;26.48;24.77
80629;BME280;69983;42.370;-71.210;2023-05-29T00:41:04;101097.54;;;25.77;25.41
80629;BME280;69983;42.370;-71.210;2023-05-29T00:42:59;101096.07;;;25.73;25.16
80629;BME280;69983;42.370;-71.210;2023-05-29T00:45:00;101110.01;;;25.56;25.02
80629;BME280;69983;42.370;-71.210;2023-05-29T00:47:01;101105.62;;;25.30;25.22
80629;BME280;69983;42.370;-71.210;2023-05-29T00:49:02;101109.41;;;25.31;25.08
80629;BME280;69983;42.370;-71.210;2023-05-29T00:51:02;101106.20;;;25.70;25.26
80629;BME280;69983;42.370;-71.210;2023-05-29T00:53:02;101106.23;;;26.02;25.16
80629;BME280;69983;42.370;-71.210;2023-05-29T00:55:03;101110.47;;;26.12;25.07
80629;BME280;69983;42.370;-71.210;2023-05-29T00:57:04;101108.37;;;26.66;24.94
80629;BME280;69983;42.370;-71.210;2023-05-29T00:59:03;101113.07;;;26.43;25.05
80629;BME280;69983;42.370;-71.210;2023-05-29T01:01:04;101112.64;;;25.91;25.09
80629;BME280;69983;42.370;-71.210;2023-05-29T01:03:05;101113.37;;;25.80;25.14
80629;BME280;69983;42.370;-71.210;2023-05-29T01:05:05;101113.38;;;25.35;25.34
80629;BME280;69983;42.370;-71.210;2023-05-29T01:07:05;101117.91;;;24.80;25.70
80629;BME280;69983;42.370;-71.210;2023-05-29T01:09:05;101118.85;;;25.65;25.42
80629;BME280;69983;42.370;-71.210;2023-05-29T01:11:11;101118.99;;;26.40;25.15
80629;BME280;69983;42.370;-71.210;2023-05-29T01:13:11;101117.51;;;26.29;24.96
80629;BME280;69983;42.370;-71.210;2023-05-29T01:15:18;101123.68;;;26.64;24.83
80629;BME280;69983;42.370;-71.210;2023-05-29T01:17:14;101125.28;;;26.40;24.98
80629;BME280;69983;42.370;-71.210;2023-05-29T01:19:16;101125.22;;;24.11;24.71
80629;BME280;69983;42.370;-71.210;2023-05-29T01:21:13;101128.51;;;24.49;24.16
80629;BME280;69983;42.370;-71.210;2023-05-29T01:23:22;101125.10;;;24.10;24.24
80629;BME280;69983;42.370;-71.210;2023-05-29T01:25:17;101130.40;;;23.94;24.11
80629;BME280;69983;42.370;-71.210;2023-05-29T01:27:10;101131.51;;;24.22;23.70
80629;BME280;69983;42.370;-71.210;2023-05-29T01:29:12;101136.06;;;26.25;24.20
80629;BME280;69983;42.370;-71.210;2023-05-29T01:31:13;101133.53;;;26.36;24.23
80629;BME280;69983;42.370;-71.210;2023-05-29T01:33:12;101137.46;;;26.36;24.32
80629;BME280;69983;42.370;-71.210;2023-05-29T01:35:13;101142.13;;;26.55;24.49
80629;BME280;69983;42.370;-71.210;2023-05-29T01:37:13;101144.56;;;26.89;24.51
80629;BME280;69983;42.370;-71.210;2023-05-29T01:39:14;101144.82;;;26.79;24.38
80629;BME280;69983;42.370;-71.210;2023-05-29T01:41:14;101147.18;;;25.21;24.92
80629;BME280;69983;42.370;-71.210;2023-05-29T01:43:14;101151.20;;;25.51;24.87
80629;BME280;69983;42.370;-71.210;2023-05-29T01:45:15;101152.73;;;25.18;24.90
80629;BME280;69983;42.370;-71.210;2023-05-29T01:47:16;101154.29;;;24.98;25.07
80629;BME280;69983;42.370;-71.210;2023-05-29T01:49:17;101156.23;;;24.97;25.60
80629;BME280;69983;42.370;-71.210;2023-05-29T01:51:17;101157.18;;;25.85;25.03
80629;BME280;69983;42.370;-71.210;2023-05-29T01:53:17;101157.37;;;25.93;24.90
80629;BME280;69983;42.370;-71.210;2023-05-29T01:55:18;101161.05;;;26.09;24.70
80629;BME280;69983;42.370;-71.210;2023-05-29T01:57:18;101164.65;;;26.29;24.70
80629;BME280;69983;42.370;-71.210;2023-05-29T01:59:18;101172.52;;;25.17;25.09
80629;BME280;69983;42.370;-71.210;2023-05-29T02:01:20;101171.76;;;25.49;24.86
80629;BME280;69983;42.370;-71.210;2023-05-29T02:03:19;101171.73;;;24.94;25.02
80629;BME280;69983;42.370;-71.210;2023-05-29T02:05:19;101173.58;;;24.54;25.17
80629;BME280;69983;42.370;-71.210;2023-05-29T02:07:20;101176.88;;;24.80;25.12
80629;BME280;69983;42.370;-71.210;2023-05-29T02:09:20;101177.42;;;25.48;24.92
80629;BME280;69983;42.370;-71.210;2023-05-29T02:11:20;101174.09;;;25.65;24.68
80629;BME280;69983;42.370;-71.210;2023-05-29T02:13:20;101175.69;;;26.16;24.39
80629;BME280;69983;42.370;-71.210;2023-05-29T02:15:21;101176.47;;;26.08;24.42
80629;BME280;69983;42.370;-71.210;2023-05-29T02:17:21;101176.90;;;25.62;24.45
80629;BME280;69983;42.370;-71.210;2023-05-29T02:19:22;101178.49;;;25.43;24.51
80629;BME280;69983;42.370;-71.210;2023-05-29T02:21:27;101185.42;;;25.00;24.58
80629;BME280;69983;42.370;-71.210;2023-05-29T02:23:23;101178.65;;;25.02;25.10
80629;BME280;69983;42.370;-71.210;2023-05-29T02:25:23;101178.79;;;25.32;24.67
80629;BME280;69983;42.370;-71.210;2023-05-29T02:27:25;101178.85;;;25.60;24.61
80629;BME280;69983;42.370;-71.210;2023-05-29T02:29:29;101174.34;;;25.70;24.50
80629;BME280;69983;42.370;-71.210;2023-05-29T02:31:25;101172.02;;;26.02;24.74
80629;BME280;69983;42.370;-71.210;2023-05-29T02:33:26;101177.70;;;25.48;24.79
80629;BME280;69983;42.370;-71.210;2023-05-29T02:35:27;101181.42;;;25.27;24.53
80629;BME280;69983;42.370;-71.210;2023-05-29T02:37:27;101182.26;;;24.86;24.83
80629;BME280;69983;42.370;-71.210;2023-05-29T02:39:27;101182.85;;;25.04;24.59
80629;BME280;69983;42.370;-71.210;2023-05-29T02:41:28;101184.19;;;25.05;24.90
80629;BME280;69983;42.370;-71.210;2023-05-29T02:43:29;101185.85;;;25.56;24.63
80629;BME280;69983;42.370;-71.210;2023-05-29T02:45:29;101184.66;;;25.74;24.46
80629;BME280;69983;42.370;-71.210;2023-05-29T02:47:30;101187.05;;;26.03;24.40
80629;BME280;69983;42.370;-71.210;2023-05-29T02:49:31;101186.72;;;25.91;24.44
80629;BME280;69983;42.370;-71.210;2023-05-29T02:51:31;101189.29;;;25.70;24.66
80629;BME280;69983;42.370;-71.210;2023-05-29T02:53:32;101197.07;;;25.63;24.55
80629;BME280;69983;42.370;-71.210;2023-05-29T02:55:33;101193.87;;;25.30;24.59
80629;BME280;69983;42.370;-71.210;2023-05-29T02:57:33;101198.19;;;25.33;24.67
80629;BME280;69983;42.370;-71.210;2023-05-29T02:59:33;101197.99;;;25.35;24.53
80629;BME280;69983;42.370;-71.210;2023-05-29T03:01:34;101199.36;;;25.70;24.63
80629;BME280;69983;42.370;-71.210;2023-05-29T03:03:34;101197.75;;;25.83;24.46
80629;BME280;69983;42.370;-71.210;2023-05-29T03:05:34;101194.78;;;26.01;24.50
80629;BME280;69983;42.370;-71.210;2023-05-29T03:07:35;101195.16;;;26.39;24.36
80629;BME280;69983;42.370;-71.210;2023-05-29T03:09:36;101195.42;;;26.20;24.52
80629;BME280;69983;42.370;-71.210;2023-05-29T03:11:36;101198.78;;;25.63;24.57
80629;BME280;69983;42.370;-71.210;2023-05-29T03:13:37;101202.08;;;25.79;24.39
80629;BME280;69983;42.370;-71.210;2023-05-29T03:15:37;101203.05;;;25.83;24.32
80629;BME280;69983;42.370;-71.210;2023-05-29T03:17:38;101198.70;;;25.33;24.52
80629;BME280;69983;42.370;-71.210;2023-05-29T03:19:38;101200.15;;;25.46;24.44
80629;BME280;69983;42.370;-71.210;2023-05-29T03:21:38;101197.17;;;26.19;24.41
80629;BME280;69983;42.370;-71.210;2023-05-29T03:23:38;101200.18;;;26.08;24.53
80629;BME280;69983;42.370;-71.210;2023-05-29T03:25:39;101201.42;;;26.54;24.53
80629;BME280;69983;42.370;-71.210;2023-05-29T03:27:40;101202.44;;;26.21;24.58
80629;BME280;69983;42.370;-71.210;2023-05-29T03:29:40;101204.84;;;25.67;24.58
80629;BME280;69983;42.370;-71.210;2023-05-29T03:31:40;101205.39;;;25.31;24.56
80629;BME280;69983;42.370;-71.210;2023-05-29T03:33:40;101205.36;;;25.37;24.50
80629;BME280;69983;42.370;-71.210;2023-05-29T03:35:41;101202.98;;;25.10;24.63
80629;BME280;69983;42.370;-71.210;2023-05-29T03:37:42;101205.62;;;25.68;24.50
80629;BME280;69983;42.370;-71.210;2023-05-29T03:39:42;101202.56;;;25.68;24.51
80629;BME280;69983;42.370;-71.210;2023-05-29T03:41:42;101201.40;;;25.92;24.48
80629;BME280;69983;42.370;-71.210;2023-05-29T03:43:43;101199.40;;;26.19;24.52
80629;BME280;69983;42.370;-71.210;2023-05-29T03:45:43;101196.79;;;25.92;24.31
80629;BME280;69983;42.370;-71.210;2023-05-29T03:47:44;101196.30;;;25.64;24.42
80629;BME280;69983;42.370;-71.210;2023-05-29T03:49:44;101198.05;;;25.33;24.60
80629;BME280;69983;42.370;-71.210;2023-05-29T03:51:45;101200.98;;;24.45;24.41
80629;BME280;69983;42.370;-71.210;2023-05-29T03:53:46;101202.64;;;23.29;24.29
80629;BME280;69983;42.370;-71.210;2023-05-29T03:55:46;101200.24;;;24.50;23.74
80629;BME280;69983;42.370;-71.210;2023-05-29T03:57:47;101197.27;;;24.50;23.44
80629;BME280;69983;42.370;-71.210;2023-05-29T03:59:48;101201.50;;;24.96;23.23
80629;BME280;69983;42.370;-71.210;2023-05-29T04:01:48;101205.07;;;26.16;22.98
80629;BME280;69983;42.370;-71.210;2023-05-29T04:03:48;101199.74;;;27.05;23.34
80629;BME280;69983;42.370;-71.210;2023-05-29T04:05:49;101197.31;;;26.63;23.79
80629;BME280;69983;42.370;-71.210;2023-05-29T04:07:49;101196.63;;;26.63;24.05
80629;BME280;69983;42.370;-71.210;2023-05-29T04:09:49;101193.82;;;26.10;24.29
80629;BME280;69983;42.370;-71.210;2023-05-29T04:11:50;101189.87;;;26.16;24.23
80629;BME280;69983;42.370;-71.210;2023-05-29T04:13:50;101188.09;;;25.74;24.30
80629;BME280;69983;42.370;-71.210;2023-05-29T04:15:51;101186.79;;;25.35;24.38
80629;BME280;69983;42.370;-71.210;2023-05-29T04:17:52;101187.14;;;25.00;24.36
80629;BME280;69983;42.370;-71.210;2023-05-29T04:19:52;101185.52;;;24.80;24.52
80629;BME280;69983;42.370;-71.210;2023-05-29T04:21:53;101185.05;;;23.98;24.20
80629;BME280;69983;42.370;-71.210;2023-05-29T04:23:53;101184.84;;;24.47;24.22
80629;BME280;69983;42.370;-71.210;2023-05-29T04:25:54;101184.79;;;24.56;25.53
80629;BME280;69983;42.370;-71.210;2023-05-29T04:27:54;101185.59;;;24.95;24.88
80629;BME280;69983;42.370;-71.210;2023-05-29T04:29:55;101186.24;;;24.73;25.61
80629;BME280;69983;42.370;-71.210;2023-05-29T04:31:55;101186.16;;;24.90;26.18
80629;BME280;69983;42.370;-71.210;2023-05-29T04:33:56;101185.20;;;24.74;25.96
80629;BME280;69983;42.370;-71.210;2023-05-29T04:35:56;101182.44;;;24.19;26.37
80629;BME280;69983;42.370;-71.210;2023-05-29T04:37:57;101183.36;;;24.84;26.46
80629;BME280;69983;42.370;-71.210;2023-05-29T04:39:57;101186.63;;;24.50;26.41
80629;BME280;69983;42.370;-71.210;2023-05-29T04:41:57;101184.74;;;24.09;26.32
80629;BME280;69983;42.370;-71.210;2023-05-29T04:43:57;101188.85;;;24.01;26.03
80629;BME280;69983;42.370;-71.210;2023-05-29T04:45:58;101196.09;;;23.55;26.21
80629;BME280;69983;42.370;-71.210;2023-05-29T04:47:58;101197.04;;;23.66;26.55
80629;BME280;69983;42.370;-71.210;2023-05-29T04:49:59;101195.82;;;23.41;27.03
80629;BME280;69983;42.370;-71.210;2023-05-29T04:51:58;101194.44;;;23.85;27.10
80629;BME280;69983;42.370;-71.210;2023-05-29T04:53:58;101193.63;;;24.27;26.80
80629;BME280;69983;42.370;-71.210;2023-05-29T04:55:59;101190.44;;;24.00;27.14
80629;BME280;69983;42.370;-71.210;2023-05-29T04:58:00;101192.86;;;25.48;27.67
80629;BME280;69983;42.370;-71.210;2023-05-29T05:00:00;101191.53;;;25.19;28.19
80629;BME280;69983;42.370;-71.210;2023-05-29T05:02:01;101194.65;;;25.43;28.55
80629;BME280;69983;42.370;-71.210;2023-05-29T05:04:01;101192.57;;;25.03;28.76
80629;BME280;69983;42.370;-71.210;2023-05-29T05:06:02;101193.04;;;25.21;28.07
80629;BME280;69983;42.370;-71.210;2023-05-29T05:08:02;101188.97;;;24.91;28.09
80629;BME280;69983;42.370;-71.210;2023-05-29T05:10:03;101188.68;;;24.51;27.76
80629;BME280;69983;42.370;-71.210;2023-05-29T05:12:03;101187.40;;;24.61;27.94
80629;BME280;69983;42.370;-71.210;2023-05-29T05:14:04;101188.97;;;24.36;28.19
80629;BME280;69983;42.370;-71.210;2023-05-29T05:16:05;101191.23;;;24.55;28.97
80629;BME280;69983;42.370;-71.210;2023-05-29T05:18:04;101188.23;;;24.50;28.77
80629;BME280;69983;42.370;-71.210;2023-05-29T05:20:05;101186.61;;;24.10;29.25
80629;BME280;69983;42.370;-71.210;2023-05-29T05:22:05;101189.31;;;24.44;29.33
80629;BME280;69983;42.370;-71.210;2023-05-29T05:24:05;101185.20;;;24.54;29.53
80629;BME280;69983;42.370;-71.210;2023-05-29T05:26:05;101182.54;;;24.51;29.66
80629;BME280;69983;42.370;-71.210;2023-05-29T05:28:07;101180.23;;;24.63;29.65
80629;BME280;69983;42.370;-71.210;2023-05-29T05:30:07;101178.65;;;24.88;28.59
80629;BME280;69983;42.370;-71.210;2023-05-29T05:32:07;101180.42;;;24.23;28.12
80629;BME280;69983;42.370;-71.210;2023-05-29T05:34:07;101178.89;;;24.81;27.76
80629;BME280;69983;42.370;-71.210;2023-05-29T05:36:08;101178.07;;;24.43;27.13
80629;BME280;69983;42.370;-71.210;2023-05-29T05:38:09;101177.00;;;24.33;28.21
80629;BME280;69983;42.370;-71.210;2023-05-29T05:40:09;101176.99;;;24.92;28.30
80629;BME280;69983;42.370;-71.210;2023-05-29T05:42:09;101177.65;;;24.82;28.50
80629;BME280;69983;42.370;-71.210;2023-05-29T05:44:10;101179.73;;;24.83;29.03
80629;BME280;69983;42.370;-71.210;2023-05-29T05:46:10;101176.20;;;24.92;29.07
80629;BME280;69983;42.370;-71.210;2023-05-29T05:48:11;101180.61;;;25.37;29.01
80629;BME280;69983;42.370;-71.210;2023-05-29T05:50:11;101177.49;;;25.00;29.23
80629;BME280;69983;42.370;-71.210;2023-05-29T05:52:11;101178.33;;;25.04;29.05
80629;BME280;69983;42.370;-71.210;2023-05-29T05:54:11;101175.21;;;25.64;29.34
80629;BME280;69983;42.370;-71.210;2023-05-29T05:56:11;101175.46;;;24.96;29.28
80629;BME280;69983;42.370;-71.210;2023-05-29T05:58:11;101174.89;;;24.97;29.56
80629;BME280;69983;42.370;-71.210;2023-05-29T06:00:13;101170.84;;;24.38;29.96
80629;BME280;69983;42.370;-71.210;2023-05-29T06:02:12;101173.83;;;24.81;29.64
80629;BME280;69983;42.370;-71.210;2023-05-29T06:04:12;101175.40;;;25.35;29.27
80629;BME280;69983;42.370;-71.210;2023-05-29T06:06:13;101176.96;;;25.48;28.37
80629;BME280;69983;42.370;-71.210;2023-05-29T06:08:14;101177.96;;;25.45;27.81
80629;BME280;69983;42.370;-71.210;2023-05-29T06:10:15;101178.47;;;25.40;27.19
80629;BME280;69983;42.370;-71.210;2023-05-29T06:12:15;101177.32;;;24.89;27.45
80629;BME280;69983;42.370;-71.210;2023-05-29T06:14:16;101173.60;;;24.58;28.24
80629;BME280;69983;42.370;-71.210;2023-05-29T06:16:16;101173.59;;;24.69;28.48
80629;BME280;69983;42.370;-71.210;2023-05-29T06:18:16;101173.41;;;24.72;28.72
80629;BME280;69983;42.370;-71.210;2023-05-29T06:20:17;101170.63;;;24.89;28.77
80629;BME280;69983;42.370;-71.210;2023-05-29T06:22:18;101169.67;;;25.14;28.95
80629;BME280;69983;42.370;-71.210;2023-05-29T06:24:17;101166.92;;;25.23;29.09
80629;BME280;69983;42.370;-71.210;2023-05-29T06:26:17;101168.21;;;25.16;29.53
80629;BME280;69983;42.370;-71.210;2023-05-29T06:28:18;101171.54;;;25.00;29.55
80629;BME280;69983;42.370;-71.210;2023-05-29T06:30:19;101170.62;;;24.95;29.64
80629;BME280;69983;42.370;-71.210;2023-05-29T06:32:19;101168.75;;;25.12;29.88
80629;BME280;69983;42.370;-71.210;2023-05-29T06:34:20;101168.49;;;24.88;30.08
80629;BME280;69983;42.370;-71.210;2023-05-29T06:36:20;101170.23;;;24.65;29.68
80629;BME280;69983;42.370;-71.210;2023-05-29T06:38:20;101164.76;;;24.33;29.32
80629;BME280;69983;42.370;-71.210;2023-05-29T06:40:20;101164.47;;;24.31;29.08
80629;BME280;69983;42.370;-71.210;2023-05-29T06:42:20;101167.30;;;23.96;29.11
80629;BME280;69983;42.370;-71.210;2023-05-29T06:44:20;101170.31;;;24.05;29.13
80629;BME280;69983;42.370;-71.210;2023-05-29T06:46:20;101166.75;;;23.88;30.11
80629;BME280;69983;42.370;-71.210;2023-05-29T06:48:21;101170.17;;;24.01;30.25
80629;BME280;69983;42.370;-71.210;2023-05-29T06:50:21;101167.04;;;24.44;30.39
80629;BME280;69983;42.370;-71.210;2023-05-29T06:52:21;101169.03;;;24.53;30.48
80629;BME280;69983;42.370;-71.210;2023-05-29T06:54:21;101167.53;;;24.10;30.87
80629;BME280;69983;42.370;-71.210;2023-05-29T06:56:22;101164.78;;;24.01;30.84
80629;BME280;69983;42.370;-71.210;2023-05-29T06:58:22;101171.33;;;24.23;31.46
80629;BME280;69983;42.370;-71.210;2023-05-29T07:00:22;101161.74;;;24.11;31.08
80629;BME280;69983;42.370;-71.210;2023-05-29T07:02:22;101165.11;;;24.33;31.16
80629;BME280;69983;42.370;-71.210;2023-05-29T07:04:23;101166.23;;;24.38;30.98
80629;BME280;69983;42.370;-71.210;2023-05-29T07:06:24;101185.11;;;24.05;31.15
80629;BME280;69983;42.370;-71.210;2023-05-29T07:08:27;101211.17;;;23.91;31.14
80629;BME280;69983;42.370;-71.210;2023-05-29T07:10:24;101228.47;;;23.67;30.80
80629;BME280;69983;42.370;-71.210;2023-05-29T07:12:26;101231.98;;;23.46;31.08
80629;BME280;69983;42.370;-71.210;2023-05-29T07:14:26;101237.30;;;23.16;30.61
80629;BME280;69983;42.370;-71.210;2023-05-29T07:16:26;101248.07;;;23.73;31.14
80629;BME280;69983;42.370;-71.210;2023-05-29T07:18:26;101245.12;;;23.76;30.85
80629;BME280;69983;42.370;-71.210;2023-05-29T07:20:26;101242.71;;;23.06;30.73
80629;BME280;69983;42.370;-71.210;2023-05-29T07:22:26;101229.80;;;23.03;29.76
80629;BME280;69983;42.370;-71.210;2023-05-29T07:24:26;101231.92;;;22.99;29.39
80629;BME280;69983;42.370;-71.210;2023-05-29T07:26:26;101233.37;;;23.00;28.17
80629;BME280;69983;42.370;-71.210;2023-05-29T07:28:26;101239.70;;;23.41;27.36
80629;BME280;69983;42.370;-71.210;2023-05-29T07:30:26;101238.94;;;23.47;27.19
80629;BME280;69983;42.370;-71.210;2023-05-29T07:32:26;101239.49;;;23.73;26.46
80629;BME280;69983;42.370;-71.210;2023-05-29T07:34:26;101241.29;;;23.57;26.26
80629;BME280;69983;42.370;-71.210;2023-05-29T07:36:30;101240.35;;;22.51;28.04
80629;BME280;69983;42.370;-71.210;2023-05-29T07:38:27;101243.04;;;24.19;28.30
80629;BME280;69983;42.370;-71.210;2023-05-29T07:40:27;101248.61;;;24.53;28.69
80629;BME280;69983;42.370;-71.210;2023-05-29T07:42:28;101251.60;;;23.68;29.53
80629;BME280;69983;42.370;-71.210;2023-05-29T07:44:28;101259.65;;;23.74;29.85
80629;BME280;69983;42.370;-71.210;2023-05-29T07:46:28;101254.14;;;24.69;28.06
80629;BME280;69983;42.370;-71.210;2023-05-29T07:48:28;101253.02;;;24.23;28.02
80629;BME280;69983;42.370;-71.210;2023-05-29T07:50:29;101258.27;;;23.90;27.97
80629;BME280;69983;42.370;-71.210;2023-05-29T07:52:30;101259.71;;;24.26;27.41
80629;BME280;69983;42.370;-71.210;2023-05-29T07:54:31;101264.23;;;23.96;28.19
80629;BME280;69983;42.370;-71.210;2023-05-29T07:56:32;101270.36;;;23.97;28.30
80629;BME280;69983;42.370;-71.210;2023-05-29T07:58:33;101265.35;;;24.20;28.22
80629;BME280;69983;42.370;-71.210;2023-05-29T08:00:33;101269.65;;;24.80;27.70
80629;BME280;69983;42.370;-71.210;2023-05-29T08:02:34;101270.05;;;24.63;27.55
80629;BME280;69983;42.370;-71.210;2023-05-29T08:04:33;101269.93;;;24.64;27.15
80629;BME280;69983;42.370;-71.210;2023-05-29T08:06:34;101275.25;;;24.27;26.94
80629;BME280;69983;42.370;-71.210;2023-05-29T08:08:35;101278.71;;;22.79;26.52
80629;BME280;69983;42.370;-71.210;2023-05-29T08:10:34;101279.88;;;22.71;25.98
80629;BME280;69983;42.370;-71.210;2023-05-29T08:12:35;101284.11;;;22.59;25.86
80629;BME280;69983;42.370;-71.210;2023-05-29T08:14:35;101282.00;;;23.10;25.55
80629;BME280;69983;42.370;-71.210;2023-05-29T08:16:36;101287.72;;;23.57;25.46
80629;BME280;69983;42.370;-71.210;2023-05-29T08:18:37;101293.73;;;25.02;25.47
80629;BME280;69983;42.370;-71.210;2023-05-29T08:20:37;101294.61;;;24.94;25.98
80629;BME280;69983;42.370;-71.210;2023-05-29T08:22:36;101296.81;;;24.39;26.30
80629;BME280;69983;42.370;-71.210;2023-05-29T08:24:37;101305.47;;;24.37;26.53
80629;BME280;69983;42.370;-71.210;2023-05-29T08:26:38;101306.11;;;24.41;26.45
80629;BME280;69983;42.370;-71.210;2023-05-29T08:28:38;101312.04;;;24.30;26.73
80629;BME280;69983;42.370;-71.210;2023-05-29T08:30:37;101320.27;;;23.80;26.72
80629;BME280;69983;42.370;-71.210;2023-05-29T08:32:39;101329.35;;;24.11;26.40
80629;BME280;69983;42.370;-71.210;2023-05-29T08:34:39;101332.63;;;23.78;26.26
80629;BME280;69983;42.370;-71.210;2023-05-29T08:36:40;101337.18;;;23.28;26.42
80629;BME280;69983;42.370;-71.210;2023-05-29T08:38:40;101346.69;;;23.60;26.37
80629;BME280;69983;42.370;-71.210;2023-05-29T08:40:41;101346.19;;;23.75;26.37
80629;BME280;69983;42.370;-71.210;2023-05-29T08:42:47;101351.30;;;23.97;25.80
80629;BME280;69983;42.370;-71.210;2023-05-29T08:44:41;101358.20;;;23.92;25.84
80629;BME280;69983;42.370;-71.210;2023-05-29T08:46:41;101367.80;;;23.96;25.41
80629;BME280;69983;42.370;-71.210;2023-05-29T08:48:43;101371.02;;;23.78;26.32
80629;BME280;69983;42.370;-71.210;2023-05-29T08:50:45;101372.72;;;23.85;26.16
80629;BME280;69983;42.370;-71.210;2023-05-29T08:52:41;101373.99;;;23.96;26.33
80629;BME280;69983;42.370;-71.210;2023-05-29T08:54:42;101382.99;;;23.95;26.45
80629;BME280;69983;42.370;-71.210;2023-05-29T08:56:43;101387.24;;;23.69;26.29
80629;BME280;69983;42.370;-71.210;2023-05-29T08:58:44;101386.56;;;23.37;26.15
80629;BME280;69983;42.370;-71.210;2023-05-29T09:00:44;101389.84;;;23.60;26.16
80629;BME280;69983;42.370;-71.210;2023-05-29T09:02:44;101396.05;;;23.20;26.35
80629;BME280;69983;42.370;-71.210;2023-05-29T09:04:44;101403.82;;;23.58;25.98
80629;BME280;69983;42.370;-71.210;2023-05-29T09:06:43;101411.01;;;23.74;25.93
80629;BME280;69983;42.370;-71.210;2023-05-29T09:08:42;101411.53;;;23.91;25.87
80629;BME280;69983;42.370;-71.210;2023-05-29T09:10:44;101416.56;;;23.96;25.88
80629;BME280;69983;42.370;-71.210;2023-05-29T09:12:43;101419.11;;;24.08;25.91
80629;BME280;69983;42.370;-71.210;2023-05-29T09:14:44;101423.13;;;24.07;25.68
80629;BME280;69983;42.370;-71.210;2023-05-29T09:16:43;101430.47;;;23.93;25.87
80629;BME280;69983;42.370;-71.210;2023-05-29T09:18:44;101441.13;;;23.73;25.26
80629;BME280;69983;42.370;-71.210;2023-05-29T09:20:44;101440.07;;;23.96;26.42
80629;BME280;69983;42.370;-71.210;2023-05-29T09:22:52;101449.32;;;23.40;26.29
80629;BME280;69983;42.370;-71.210;2023-05-29T09:24:47;101453.48;;;23.31;26.21
80629;BME280;69983;42.370;-71.210;2023-05-29T09:26:49;101463.36;;;23.36;25.93
80629;BME280;69983;42.370;-71.210;2023-05-29T09:28:46;101463.40;;;23.66;26.08
80629;BME280;69983;42.370;-71.210;2023-05-29T09:30:45;101470.87;;;23.94;25.97
80629;BME280;69983;42.370;-71.210;2023-05-29T09:32:44;101481.65;;;24.06;25.91
80629;BME280;69983;42.370;-71.210;2023-05-29T09:34:45;101487.39;;;23.89;25.99
80629;BME280;69983;42.370;-71.210;2023-05-29T09:36:44;101491.68;;;23.43;26.30
80629;BME280;69983;42.370;-71.210;2023-05-29T09:38:46;101489.83;;;23.89;26.03
80629;BME280;69983;42.370;-71.210;2023-05-29T09:40:45;101496.17;;;23.58;26.33
80629;BME280;69983;42.370;-71.210;2023-05-29T09:42:45;101502.23;;;23.48;26.32
80629;BME280;69983;42.370;-71.210;2023-05-29T09:44:49;101505.98;;;23.17;26.15
80629;BME280;69983;42.370;-71.210;2023-05-29T09:46:45;101509.52;;;23.40;26.04
80629;BME280;69983;42.370;-71.210;2023-05-29T09:48:46;101507.42;;;23.45;25.95
80629;BME280;69983;42.370;-71.210;2023-05-29T09:50:46;101513.26;;;23.81;26.02
80629;BME280;69983;42.370;-71.210;2023-05-29T09:52:45;101521.03;;;23.53;26.22
80629;BME280;69983;42.370;-71.210;2023-05-29T09:54:45;101523.43;;;23.78;26.06
80629;BME280;69983;42.370;-71.210;2023-05-29T09:56:46;101523.56;;;23.65;26.18
80629;BME280;69983;42.370;-71.210;2023-05-29T09:58:45;101527.54;;;23.75;26.18
80629;BME280;69983;42.370;-71.210;2023-05-29T10:00:46;101531.75;;;23.66;26.35
80629;BME280;69983;42.370;-71.210;2023-05-29T10:02:46;101537.92;;;23.27;26.03
80629;BME280;69983;42.370;-71.210;2023-05-29T10:04:46;101545.69;;;23.34;26.28
80629;BME280;69983;42.370;-71.210;2023-05-29T10:06:46;101552.17;;;23.52;26.02
80629;BME280;69983;42.370;-71.210;2023-05-29T10:08:47;101550.85;;;23.42;26.12
80629;BME280;69983;42.370;-71.210;2023-05-29T10:10:47;101553.02;;;23.96;25.97
80629;BME280;69983;42.370;-71.210;2023-05-29T10:12:49;101553.25;;;24.09;25.96